Pagrindinis puslapis
METAR-TAF:

METAR-TAF

Oro uostai :

Marakaibas, Venesuela

platuma: 10-34N, ilguma: 071-44W, Aukštis: 66 m

Dabartinis oras

Ataskaita buvo paskelbta 1 valandą ir 3 minutes, ne 10:02 UTC
Temperatūra
Slėgis

METAR: SVMC 281002Z AUTO NIL

Laikas: 07:05 (11:05 UTC)

Prognozė

Ataskaita buvo paskelbta 7 valandos ir 5 minutes, ne 04:00 UTC
Prognozė galioja nuo 28 metu 06 UTC su 29 metu 06 UTC
Vėjas 8 kt iš Pietų/Pietryčių
Matomumas 10 km arba daugiau
Tapsmas
nuo 28 metu 06 UTC su 28 metu 10 UTC
Vėjas 2 kt iš Rytų
Matomumas: 9000 m
dulksna

TAF: SVMC 280400Z 2806/2906 15008KT 9999 BNK016 TX32/18Z TN25/09Z BECMG 2806/2810 09002KT 9000 DZ BN016

Orai ataskaitas ir orų prognozės (METAR, TAF).

turimą stotys yra geltonos ir raudonos taškus žemėlapyje.

Perkelti pele per norėdami pamatyti stoties vardą.

Tada spustelėkite, norėdami matyti oro stebėjimo ir prognozės.

Norėdami pakeisti žemėlapį: spustelėkite ant žalios mygtukų su juodo kryžiaus žemyn,; žalią mygtuką su brūkšneliu, jei norite nutolinti; arba žalių rodyklių gretimoms žemėlapius.


METAR-TAF: